sensor_id;sensor_type;location;lat;lon;timestamp;P1;durP1;ratioP1;P2;durP2;ratioP2
42904;SDS011;28550;51.228;4.528;2023-07-13T00:00:33;7.93;;;2.47;;
42904;SDS011;28550;51.228;4.528;2023-07-13T00:02:58;9.20;;;2.40;;
42904;SDS011;28550;51.228;4.528;2023-07-13T00:05:24;9.00;;;2.50;;
42904;SDS011;28550;51.228;4.528;2023-07-13T00:07:51;11.63;;;3.45;;
42904;SDS011;28550;51.228;4.528;2023-07-13T00:10:18;9.20;;;3.30;;
42904;SDS011;28550;51.228;4.528;2023-07-13T00:12:45;8.88;;;3.28;;
42904;SDS011;28550;51.228;4.528;2023-07-13T00:15:15;10.50;;;2.90;;
42904;SDS011;28550;51.228;4.528;2023-07-13T00:17:48;5.53;;;2.30;;
42904;SDS011;28550;51.228;4.528;2023-07-13T00:20:15;8.05;;;3.08;;
42904;SDS011;28550;51.228;4.528;2023-07-13T00:22:41;10.27;;;2.83;;
42904;SDS011;28550;51.228;4.528;2023-07-13T00:25:07;7.82;;;2.70;;
42904;SDS011;28550;51.228;4.528;2023-07-13T00:27:37;12.20;;;3.42;;
42904;SDS011;28550;51.228;4.528;2023-07-13T00:30:02;11.10;;;3.55;;
42904;SDS011;28550;51.228;4.528;2023-07-13T00:32:28;8.63;;;3.15;;
42904;SDS011;28550;51.228;4.528;2023-07-13T00:34:54;11.40;;;3.15;;
42904;SDS011;28550;51.228;4.528;2023-07-13T00:37:21;9.07;;;3.33;;
42904;SDS011;28550;51.228;4.528;2023-07-13T00:39:47;7.53;;;3.33;;
42904;SDS011;28550;51.228;4.528;2023-07-13T00:42:13;12.25;;;3.90;;
42904;SDS011;28550;51.228;4.528;2023-07-13T00:44:40;9.18;;;2.90;;
42904;SDS011;28550;51.228;4.528;2023-07-13T00:47:05;8.77;;;2.88;;
42904;SDS011;28550;51.228;4.528;2023-07-13T00:49:32;8.98;;;3.35;;
42904;SDS011;28550;51.228;4.528;2023-07-13T00:52:04;9.27;;;3.72;;
42904;SDS011;28550;51.228;4.528;2023-07-13T00:54:40;14.77;;;3.40;;
42904;SDS011;28550;51.228;4.528;2023-07-13T00:57:12;12.63;;;3.40;;
42904;SDS011;28550;51.228;4.528;2023-07-13T00:59:42;10.60;;;3.00;;
42904;SDS011;28550;51.228;4.528;2023-07-13T01:02:15;9.45;;;3.22;;
42904;SDS011;28550;51.228;4.528;2023-07-13T01:04:41;16.13;;;4.50;;
42904;SDS011;28550;51.228;4.528;2023-07-13T01:07:10;13.25;;;4.32;;
42904;SDS011;28550;51.228;4.528;2023-07-13T01:09:37;14.48;;;3.78;;
42904;SDS011;28550;51.228;4.528;2023-07-13T01:12:03;11.10;;;4.13;;
42904;SDS011;28550;51.228;4.528;2023-07-13T01:14:29;10.48;;;3.30;;
42904;SDS011;28550;51.228;4.528;2023-07-13T01:16:55;13.80;;;3.90;;
42904;SDS011;28550;51.228;4.528;2023-07-13T01:19:33;11.88;;;3.42;;
42904;SDS011;28550;51.228;4.528;2023-07-13T01:22:06;8.82;;;3.10;;
42904;SDS011;28550;51.228;4.528;2023-07-13T01:24:37;13.70;;;4.07;;
42904;SDS011;28550;51.228;4.528;2023-07-13T01:27:04;9.20;;;3.92;;
42904;SDS011;28550;51.228;4.528;2023-07-13T01:29:32;9.57;;;4.15;;
42904;SDS011;28550;51.228;4.528;2023-07-13T01:31:59;9.05;;;3.55;;
42904;SDS011;28550;51.228;4.528;2023-07-13T01:34:26;16.08;;;4.40;;
42904;SDS011;28550;51.228;4.528;2023-07-13T01:36:52;12.85;;;4.20;;
42904;SDS011;28550;51.228;4.528;2023-07-13T01:39:20;10.73;;;3.72;;
42904;SDS011;28550;51.228;4.528;2023-07-13T01:41:47;9.02;;;4.15;;
42904;SDS011;28550;51.228;4.528;2023-07-13T01:44:13;20.25;;;4.30;;
42904;SDS011;28550;51.228;4.528;2023-07-13T01:46:39;10.52;;;3.70;;
42904;SDS011;28550;51.228;4.528;2023-07-13T01:49:04;10.25;;;4.65;;
42904;SDS011;28550;51.228;4.528;2023-07-13T01:51:30;12.50;;;3.67;;
42904;SDS011;28550;51.228;4.528;2023-07-13T01:53:56;16.58;;;4.07;;
42904;SDS011;28550;51.228;4.528;2023-07-13T01:56:21;15.25;;;4.63;;
42904;SDS011;28550;51.228;4.528;2023-07-13T01:58:47;12.63;;;3.92;;
42904;SDS011;28550;51.228;4.528;2023-07-13T02:01:14;10.60;;;4.25;;
42904;SDS011;28550;51.228;4.528;2023-07-13T02:03:40;13.13;;;4.00;;
42904;SDS011;28550;51.228;4.528;2023-07-13T02:06:06;10.90;;;3.75;;
42904;SDS011;28550;51.228;4.528;2023-07-13T02:08:34;13.20;;;4.85;;
42904;SDS011;28550;51.228;4.528;2023-07-13T02:11:00;16.35;;;4.80;;
42904;SDS011;28550;51.228;4.528;2023-07-13T02:13:28;11.13;;;3.92;;
42904;SDS011;28550;51.228;4.528;2023-07-13T02:15:55;16.38;;;5.25;;
42904;SDS011;28550;51.228;4.528;2023-07-13T02:18:20;15.68;;;4.47;;
42904;SDS011;28550;51.228;4.528;2023-07-13T02:20:46;14.25;;;4.32;;
42904;SDS011;28550;51.228;4.528;2023-07-13T02:23:12;8.65;;;4.25;;
42904;SDS011;28550;51.228;4.528;2023-07-13T02:25:37;12.77;;;4.63;;
42904;SDS011;28550;51.228;4.528;2023-07-13T02:28:03;11.20;;;3.72;;
42904;SDS011;28550;51.228;4.528;2023-07-13T02:30:29;12.73;;;4.93;;
42904;SDS011;28550;51.228;4.528;2023-07-13T02:32:55;16.60;;;4.88;;
42904;SDS011;28550;51.228;4.528;2023-07-13T02:35:22;14.27;;;4.78;;
42904;SDS011;28550;51.228;4.528;2023-07-13T02:37:50;16.23;;;5.70;;
42904;SDS011;28550;51.228;4.528;2023-07-13T02:40:16;13.20;;;5.00;;
42904;SDS011;28550;51.228;4.528;2023-07-13T02:42:42;20.30;;;5.32;;
42904;SDS011;28550;51.228;4.528;2023-07-13T02:45:08;13.32;;;5.43;;
42904;SDS011;28550;51.228;4.528;2023-07-13T02:47:34;11.02;;;5.40;;
42904;SDS011;28550;51.228;4.528;2023-07-13T02:50:01;16.50;;;5.72;;
42904;SDS011;28550;51.228;4.528;2023-07-13T02:52:27;17.83;;;5.45;;
42904;SDS011;28550;51.228;4.528;2023-07-13T02:54:54;18.20;;;5.18;;
42904;SDS011;28550;51.228;4.528;2023-07-13T02:57:20;13.52;;;4.82;;
42904;SDS011;28550;51.228;4.528;2023-07-13T02:59:46;13.48;;;4.35;;
42904;SDS011;28550;51.228;4.528;2023-07-13T03:02:11;10.27;;;4.40;;
42904;SDS011;28550;51.228;4.528;2023-07-13T03:04:38;11.95;;;4.13;;
42904;SDS011;28550;51.228;4.528;2023-07-13T03:07:07;14.57;;;4.20;;
42904;SDS011;28550;51.228;4.528;2023-07-13T03:09:33;17.15;;;4.57;;
42904;SDS011;28550;51.228;4.528;2023-07-13T03:11:59;10.48;;;3.97;;
42904;SDS011;28550;51.228;4.528;2023-07-13T03:14:25;10.77;;;4.20;;
42904;SDS011;28550;51.228;4.528;2023-07-13T03:16:51;13.70;;;3.78;;
42904;SDS011;28550;51.228;4.528;2023-07-13T03:19:17;16.83;;;5.20;;
42904;SDS011;28550;51.228;4.528;2023-07-13T03:21:43;16.75;;;4.80;;
42904;SDS011;28550;51.228;4.528;2023-07-13T03:24:09;10.25;;;4.35;;
42904;SDS011;28550;51.228;4.528;2023-07-13T03:26:35;17.00;;;3.70;;
42904;SDS011;28550;51.228;4.528;2023-07-13T03:29:00;13.07;;;4.22;;
42904;SDS011;28550;51.228;4.528;2023-07-13T03:31:27;20.10;;;4.85;;
42904;SDS011;28550;51.228;4.528;2023-07-13T03:33:55;19.13;;;4.97;;
42904;SDS011;28550;51.228;4.528;2023-07-13T03:38:54;17.65;;;5.05;;
42904;SDS011;28550;51.228;4.528;2023-07-13T03:41:22;12.82;;;5.25;;
42904;SDS011;28550;51.228;4.528;2023-07-13T03:43:48;16.83;;;5.30;;
42904;SDS011;28550;51.228;4.528;2023-07-13T03:46:15;13.75;;;5.25;;
42904;SDS011;28550;51.228;4.528;2023-07-13T03:48:43;18.40;;;6.00;;
42904;SDS011;28550;51.228;4.528;2023-07-13T03:51:10;19.88;;;5.70;;
42904;SDS011;28550;51.228;4.528;2023-07-13T03:53:40;14.48;;;5.07;;
42904;SDS011;28550;51.228;4.528;2023-07-13T03:56:07;17.48;;;6.80;;
42904;SDS011;28550;51.228;4.528;2023-07-13T03:58:35;15.68;;;6.05;;
42904;SDS011;28550;51.228;4.528;2023-07-13T04:01:02;21.25;;;7.30;;
42904;SDS011;28550;51.228;4.528;2023-07-13T04:03:30;12.60;;;5.75;;
42904;SDS011;28550;51.228;4.528;2023-07-13T04:06:00;18.30;;;5.40;;
42904;SDS011;28550;51.228;4.528;2023-07-13T04:08:28;23.23;;;5.90;;
42904;SDS011;28550;51.228;4.528;2023-07-13T04:10:55;21.23;;;6.88;;
42904;SDS011;28550;51.228;4.528;2023-07-13T04:13:22;16.73;;;6.60;;
42904;SDS011;28550;51.228;4.528;2023-07-13T04:15:47;18.17;;;5.90;;
42904;SDS011;28550;51.228;4.528;2023-07-13T04:18:13;14.75;;;7.00;;
42904;SDS011;28550;51.228;4.528;2023-07-13T04:20:39;22.75;;;8.27;;
42904;SDS011;28550;51.228;4.528;2023-07-13T04:23:05;15.10;;;6.53;;
42904;SDS011;28550;51.228;4.528;2023-07-13T04:25:31;22.80;;;8.55;;
42904;SDS011;28550;51.228;4.528;2023-07-13T04:27:56;22.05;;;8.98;;
42904;SDS011;28550;51.228;4.528;2023-07-13T04:30:22;20.33;;;8.02;;
42904;SDS011;28550;51.228;4.528;2023-07-13T04:32:49;24.48;;;9.00;;
42904;SDS011;28550;51.228;4.528;2023-07-13T04:35:19;19.40;;;8.48;;
42904;SDS011;28550;51.228;4.528;2023-07-13T04:37:47;23.02;;;8.13;;
42904;SDS011;28550;51.228;4.528;2023-07-13T04:40:15;13.98;;;6.65;;
42904;SDS011;28550;51.228;4.528;2023-07-13T04:42:45;16.80;;;7.28;;
42904;SDS011;28550;51.228;4.528;2023-07-13T04:45:11;25.15;;;8.95;;
42904;SDS011;28550;51.228;4.528;2023-07-13T04:47:38;17.83;;;5.78;;
42904;SDS011;28550;51.228;4.528;2023-07-13T04:50:07;20.30;;;6.68;;
42904;SDS011;28550;51.228;4.528;2023-07-13T04:52:34;22.17;;;6.32;;
42904;SDS011;28550;51.228;4.528;2023-07-13T04:55:00;13.10;;;5.28;;
42904;SDS011;28550;51.228;4.528;2023-07-13T04:57:28;14.27;;;6.05;;
42904;SDS011;28550;51.228;4.528;2023-07-13T04:59:54;14.13;;;5.72;;
42904;SDS011;28550;51.228;4.528;2023-07-13T05:02:25;18.85;;;5.55;;
42904;SDS011;28550;51.228;4.528;2023-07-13T05:04:53;17.80;;;5.13;;
42904;SDS011;28550;51.228;4.528;2023-07-13T05:07:19;15.90;;;5.70;;
42904;SDS011;28550;51.228;4.528;2023-07-13T05:09:45;23.95;;;6.40;;
42904;SDS011;28550;51.228;4.528;2023-07-13T05:12:14;23.08;;;6.47;;
42904;SDS011;28550;51.228;4.528;2023-07-13T05:14:40;14.38;;;5.32;;
42904;SDS011;28550;51.228;4.528;2023-07-13T05:17:05;13.23;;;5.97;;
42904;SDS011;28550;51.228;4.528;2023-07-13T05:19:31;16.13;;;6.10;;
42904;SDS011;28550;51.228;4.528;2023-07-13T05:21:57;16.10;;;6.78;;
42904;SDS011;28550;51.228;4.528;2023-07-13T05:24:25;17.02;;;6.70;;
42904;SDS011;28550;51.228;4.528;2023-07-13T05:26:51;24.90;;;6.78;;
42904;SDS011;28550;51.228;4.528;2023-07-13T05:29:18;21.45;;;7.72;;
42904;SDS011;28550;51.228;4.528;2023-07-13T05:31:46;18.63;;;7.25;;
42904;SDS011;28550;51.228;4.528;2023-07-13T05:34:13;20.80;;;6.55;;
42904;SDS011;28550;51.228;4.528;2023-07-13T05:36:39;23.42;;;7.68;;
42904;SDS011;28550;51.228;4.528;2023-07-13T05:39:05;16.50;;;6.80;;
42904;SDS011;28550;51.228;4.528;2023-07-13T05:41:31;21.63;;;7.07;;
42904;SDS011;28550;51.228;4.528;2023-07-13T05:43:57;17.08;;;6.40;;
42904;SDS011;28550;51.228;4.528;2023-07-13T05:46:23;19.80;;;6.22;;
42904;SDS011;28550;51.228;4.528;2023-07-13T05:48:49;19.23;;;6.90;;
42904;SDS011;28550;51.228;4.528;2023-07-13T05:51:15;19.42;;;6.35;;
42904;SDS011;28550;51.228;4.528;2023-07-13T05:53:40;14.80;;;5.63;;
42904;SDS011;28550;51.228;4.528;2023-07-13T05:56:06;16.90;;;7.05;;
42904;SDS011;28550;51.228;4.528;2023-07-13T05:58:32;16.80;;;6.35;;
42904;SDS011;28550;51.228;4.528;2023-07-13T06:01:01;18.55;;;6.95;;
42904;SDS011;28550;51.228;4.528;2023-07-13T06:03:31;19.65;;;6.40;;
42904;SDS011;28550;51.228;4.528;2023-07-13T06:06:00;17.08;;;6.22;;
42904;SDS011;28550;51.228;4.528;2023-07-13T06:08:30;13.32;;;6.45;;
42904;SDS011;28550;51.228;4.528;2023-07-13T06:11:09;13.60;;;5.47;;
42904;SDS011;28550;51.228;4.528;2023-07-13T06:13:53;19.55;;;6.35;;
42904;SDS011;28550;51.228;4.528;2023-07-13T06:16:19;19.20;;;5.95;;
42904;SDS011;28550;51.228;4.528;2023-07-13T06:18:45;19.23;;;5.40;;
42904;SDS011;28550;51.228;4.528;2023-07-13T06:21:14;16.55;;;5.93;;
42904;SDS011;28550;51.228;4.528;2023-07-13T06:23:42;16.52;;;5.47;;
42904;SDS011;28550;51.228;4.528;2023-07-13T06:26:08;14.93;;;6.10;;
42904;SDS011;28550;51.228;4.528;2023-07-13T06:28:35;16.38;;;6.65;;
42904;SDS011;28550;51.228;4.528;2023-07-13T06:31:04;14.25;;;5.38;;
42904;SDS011;28550;51.228;4.528;2023-07-13T06:33:31;15.45;;;5.50;;
42904;SDS011;28550;51.228;4.528;2023-07-13T06:35:58;11.73;;;5.22;;
42904;SDS011;28550;51.228;4.528;2023-07-13T06:38:23;14.88;;;5.57;;
42904;SDS011;28550;51.228;4.528;2023-07-13T06:40:55;12.50;;;5.03;;
42904;SDS011;28550;51.228;4.528;2023-07-13T06:43:25;14.60;;;5.25;;
42904;SDS011;28550;51.228;4.528;2023-07-13T06:45:56;15.57;;;5.85;;
42904;SDS011;28550;51.228;4.528;2023-07-13T06:48:33;16.25;;;5.72;;
42904;SDS011;28550;51.228;4.528;2023-07-13T06:51:04;16.55;;;5.50;;
42904;SDS011;28550;51.228;4.528;2023-07-13T06:53:36;14.57;;;4.75;;
42904;SDS011;28550;51.228;4.528;2023-07-13T06:56:10;14.30;;;4.85;;
42904;SDS011;28550;51.228;4.528;2023-07-13T07:02:02;12.00;;;5.25;;
42904;SDS011;28550;51.228;4.528;2023-07-13T07:05:01;10.65;;;4.82;;
42904;SDS011;28550;51.228;4.528;2023-07-13T07:07:27;13.98;;;5.32;;
42904;SDS011;28550;51.228;4.528;2023-07-13T07:09:55;13.15;;;5.28;;
42904;SDS011;28550;51.228;4.528;2023-07-13T07:12:25;14.90;;;5.82;;
42904;SDS011;28550;51.228;4.528;2023-07-13T07:14:53;11.95;;;5.05;;
42904;SDS011;28550;51.228;4.528;2023-07-13T07:17:19;19.88;;;5.38;;
42904;SDS011;28550;51.228;4.528;2023-07-13T07:19:46;12.30;;;4.80;;
42904;SDS011;28550;51.228;4.528;2023-07-13T07:22:14;20.45;;;5.47;;
42904;SDS011;28550;51.228;4.528;2023-07-13T07:24:42;13.68;;;5.47;;
42904;SDS011;28550;51.228;4.528;2023-07-13T07:27:08;18.38;;;5.35;;
42904;SDS011;28550;51.228;4.528;2023-07-13T07:32:04;18.02;;;5.03;;
42904;SDS011;28550;51.228;4.528;2023-07-13T07:34:31;10.68;;;4.63;;
42904;SDS011;28550;51.228;4.528;2023-07-13T07:37:04;15.95;;;5.15;;
42904;SDS011;28550;51.228;4.528;2023-07-13T07:39:31;14.40;;;4.85;;
42904;SDS011;28550;51.228;4.528;2023-07-13T07:41:59;17.00;;;5.63;;
42904;SDS011;28550;51.228;4.528;2023-07-13T07:44:26;13.50;;;5.50;;
42904;SDS011;28550;51.228;4.528;2023-07-13T07:49:25;15.48;;;5.15;;
42904;SDS011;28550;51.228;4.528;2023-07-13T07:51:51;10.43;;;5.72;;
42904;SDS011;28550;51.228;4.528;2023-07-13T07:54:23;8.65;;;5.10;;
42904;SDS011;28550;51.228;4.528;2023-07-13T07:57:08;14.85;;;5.90;;
42904;SDS011;28550;51.228;4.528;2023-07-13T07:59:52;14.35;;;5.18;;
42904;SDS011;28550;51.228;4.528;2023-07-13T08:15:22;15.30;;;5.45;;
42904;SDS011;28550;51.228;4.528;2023-07-13T08:23:27;14.50;;;4.57;;
42904;SDS011;28550;51.228;4.528;2023-07-13T08:28:47;16.73;;;4.97;;
42904;SDS011;28550;51.228;4.528;2023-07-13T08:31:13;11.85;;;6.05;;
42904;SDS011;28550;51.228;4.528;2023-07-13T08:33:44;9.15;;;4.22;;
42904;SDS011;28550;51.228;4.528;2023-07-13T08:36:18;9.40;;;4.60;;
42904;SDS011;28550;51.228;4.528;2023-07-13T08:38:50;6.95;;;3.88;;
42904;SDS011;28550;51.228;4.528;2023-07-13T08:41:17;8.10;;;4.05;;
42904;SDS011;28550;51.228;4.528;2023-07-13T08:43:46;12.48;;;4.53;;
42904;SDS011;28550;51.228;4.528;2023-07-13T08:49:03;10.77;;;4.60;;
42904;SDS011;28550;51.228;4.528;2023-07-13T08:51:45;10.55;;;4.70;;
42904;SDS011;28550;51.228;4.528;2023-07-13T08:54:34;8.55;;;3.75;;
42904;SDS011;28550;51.228;4.528;2023-07-13T08:57:33;7.88;;;3.90;;
42904;SDS011;28550;51.228;4.528;2023-07-13T09:00:19;8.80;;;3.72;;
42904;SDS011;28550;51.228;4.528;2023-07-13T09:02:54;7.78;;;3.50;;
42904;SDS011;28550;51.228;4.528;2023-07-13T09:05:38;5.43;;;3.25;;
42904;SDS011;28550;51.228;4.528;2023-07-13T09:11:39;9.25;;;3.78;;
42904;SDS011;28550;51.228;4.528;2023-07-13T09:17:34;9.93;;;4.07;;
42904;SDS011;28550;51.228;4.528;2023-07-13T09:22:53;12.15;;;3.75;;
42904;SDS011;28550;51.228;4.528;2023-07-13T09:25:38;13.15;;;2.97;;
42904;SDS011;28550;51.228;4.528;2023-07-13T09:30:56;8.63;;;3.67;;
42904;SDS011;28550;51.228;4.528;2023-07-13T09:33:43;10.93;;;3.92;;
42904;SDS011;28550;51.228;4.528;2023-07-13T09:45:09;13.50;;;4.85;;
42904;SDS011;28550;51.228;4.528;2023-07-13T09:47:42;10.82;;;3.92;;
42904;SDS011;28550;51.228;4.528;2023-07-13T09:50:21;10.30;;;4.82;;
42904;SDS011;28550;51.228;4.528;2023-07-13T09:53:50;10.63;;;4.45;;
42904;SDS011;28550;51.228;4.528;2023-07-13T09:59:35;13.05;;;4.60;;
42904;SDS011;28550;51.228;4.528;2023-07-13T10:05:16;8.20;;;4.45;;
42904;SDS011;28550;51.228;4.528;2023-07-13T10:07:47;11.95;;;3.88;;
42904;SDS011;28550;51.228;4.528;2023-07-13T10:10:28;9.45;;;3.60;;
42904;SDS011;28550;51.228;4.528;2023-07-13T10:23:10;10.77;;;4.30;;
42904;SDS011;28550;51.228;4.528;2023-07-13T10:26:12;13.00;;;3.85;;
42904;SDS011;28550;51.228;4.528;2023-07-13T10:51:24;10.75;;;2.95;;
42904;SDS011;28550;51.228;4.528;2023-07-13T10:54:31;4.57;;;2.45;;
42904;SDS011;28550;51.228;4.528;2023-07-13T10:57:18;8.27;;;2.92;;
42904;SDS011;28550;51.228;4.528;2023-07-13T11:00:35;9.05;;;3.05;;
42904;SDS011;28550;51.228;4.528;2023-07-13T11:03:45;6.65;;;2.25;;
42904;SDS011;28550;51.228;4.528;2023-07-13T11:12:25;4.30;;;2.22;;
42904;SDS011;28550;51.228;4.528;2023-07-13T11:23:17;4.47;;;2.53;;
42904;SDS011;28550;51.228;4.528;2023-07-13T11:32:49;6.25;;;3.55;;
42904;SDS011;28550;51.228;4.528;2023-07-13T11:39:02;8.60;;;3.35;;
42904;SDS011;28550;51.228;4.528;2023-07-13T11:48:19;12.10;;;5.30;;
42904;SDS011;28550;51.228;4.528;2023-07-13T11:51:54;15.88;;;7.70;;
42904;SDS011;28550;51.228;4.528;2023-07-13T11:57:41;9.65;;;6.80;;
42904;SDS011;28550;51.228;4.528;2023-07-13T12:00:18;13.60;;;6.47;;
42904;SDS011;28550;51.228;4.528;2023-07-13T12:06:24;13.97;;;6.87;;
42904;SDS011;28550;51.228;4.528;2023-07-13T12:09:27;15.73;;;6.32;;
42904;SDS011;28550;51.228;4.528;2023-07-13T12:12:17;9.73;;;6.05;;
42904;SDS011;28550;51.228;4.528;2023-07-13T12:14:46;11.80;;;5.78;;
42904;SDS011;28550;51.228;4.528;2023-07-13T12:17:21;9.23;;;6.45;;
42904;SDS011;28550;51.228;4.528;2023-07-13T12:20:00;11.43;;;6.30;;
42904;SDS011;28550;51.228;4.528;2023-07-13T12:26:04;12.57;;;5.50;;
42904;SDS011;28550;51.228;4.528;2023-07-13T12:34:20;8.93;;;4.90;;
42904;SDS011;28550;51.228;4.528;2023-07-13T12:40:16;9.13;;;5.13;;
42904;SDS011;28550;51.228;4.528;2023-07-13T12:49:13;7.10;;;4.07;;
42904;SDS011;28550;51.228;4.528;2023-07-13T12:52:02;8.48;;;4.80;;
42904;SDS011;28550;51.228;4.528;2023-07-13T12:54:54;7.68;;;3.80;;
42904;SDS011;28550;51.228;4.528;2023-07-13T13:01:25;5.57;;;4.07;;
42904;SDS011;28550;51.228;4.528;2023-07-13T13:07:27;6.72;;;3.85;;
42904;SDS011;28550;51.228;4.528;2023-07-13T13:10:00;4.72;;;3.50;;
42904;SDS011;28550;51.228;4.528;2023-07-13T13:12:46;5.15;;;2.92;;
42904;SDS011;28550;51.228;4.528;2023-07-13T13:26:45;8.18;;;3.38;;
42904;SDS011;28550;51.228;4.528;2023-07-13T13:29:43;8.32;;;3.03;;
42904;SDS011;28550;51.228;4.528;2023-07-13T13:45:22;7.75;;;3.05;;
42904;SDS011;28550;51.228;4.528;2023-07-13T13:51:46;9.07;;;3.53;;
42904;SDS011;28550;51.228;4.528;2023-07-13T13:57:23;6.10;;;3.45;;
42904;SDS011;28550;51.228;4.528;2023-07-13T14:00:02;5.50;;;3.70;;
42904;SDS011;28550;51.228;4.528;2023-07-13T14:02:31;4.38;;;2.97;;
42904;SDS011;28550;51.228;4.528;2023-07-13T14:07:50;5.20;;;2.90;;
42904;SDS011;28550;51.228;4.528;2023-07-13T14:10:25;5.78;;;3.00;;
42904;SDS011;28550;51.228;4.528;2023-07-13T14:13:31;5.30;;;3.67;;
42904;SDS011;28550;51.228;4.528;2023-07-13T14:19:22;6.57;;;3.88;;
42904;SDS011;28550;51.228;4.528;2023-07-13T14:21:49;10.27;;;4.18;;
42904;SDS011;28550;51.228;4.528;2023-07-13T14:24:23;7.30;;;4.25;;
42904;SDS011;28550;51.228;4.528;2023-07-13T14:26:54;7.07;;;4.13;;
42904;SDS011;28550;51.228;4.528;2023-07-13T14:30:23;7.90;;;4.35;;
42904;SDS011;28550;51.228;4.528;2023-07-13T14:32:46;9.60;;;4.03;;
42904;SDS011;28550;51.228;4.528;2023-07-13T14:35:23;5.97;;;3.63;;
42904;SDS011;28550;51.228;4.528;2023-07-13T14:37:52;4.35;;;3.28;;
42904;SDS011;28550;51.228;4.528;2023-07-13T14:40:29;5.68;;;3.83;;
42904;SDS011;28550;51.228;4.528;2023-07-13T14:43:01;5.60;;;3.13;;
42904;SDS011;28550;51.228;4.528;2023-07-13T14:45:27;7.90;;;3.60;;
42904;SDS011;28550;51.228;4.528;2023-07-13T14:48:09;4.75;;;2.88;;
42904;SDS011;28550;51.228;4.528;2023-07-13T14:51:01;8.23;;;3.20;;
42904;SDS011;28550;51.228;4.528;2023-07-13T14:56:18;4.05;;;2.70;;
42904;SDS011;28550;51.228;4.528;2023-07-13T15:02:34;5.80;;;2.60;;
42904;SDS011;28550;51.228;4.528;2023-07-13T15:05:05;5.35;;;2.47;;
42904;SDS011;28550;51.228;4.528;2023-07-13T15:07:41;4.28;;;2.50;;
42904;SDS011;28550;51.228;4.528;2023-07-13T15:10:17;6.75;;;2.55;;
42904;SDS011;28550;51.228;4.528;2023-07-13T15:12:47;5.10;;;2.47;;
42904;SDS011;28550;51.228;4.528;2023-07-13T15:15:17;6.68;;;3.20;;
42904;SDS011;28550;51.228;4.528;2023-07-13T15:17:51;7.22;;;2.72;;
42904;SDS011;28550;51.228;4.528;2023-07-13T15:20:31;6.18;;;2.72;;
42904;SDS011;28550;51.228;4.528;2023-07-13T15:26:15;6.75;;;3.30;;
42904;SDS011;28550;51.228;4.528;2023-07-13T15:34:23;4.47;;;3.20;;
42904;SDS011;28550;51.228;4.528;2023-07-13T15:37:04;5.40;;;2.83;;
42904;SDS011;28550;51.228;4.528;2023-07-13T15:40:05;4.78;;;2.22;;
42904;SDS011;28550;51.228;4.528;2023-07-13T15:42:32;5.03;;;3.00;;
42904;SDS011;28550;51.228;4.528;2023-07-13T15:45:08;3.83;;;2.90;;
42904;SDS011;28550;51.228;4.528;2023-07-13T15:47:52;5.93;;;2.97;;
42904;SDS011;28550;51.228;4.528;2023-07-13T15:50:20;3.60;;;2.47;;
42904;SDS011;28550;51.228;4.528;2023-07-13T15:52:49;3.03;;;2.40;;
42904;SDS011;28550;51.228;4.528;2023-07-13T15:55:17;4.93;;;2.83;;
42904;SDS011;28550;51.228;4.528;2023-07-13T15:57:46;4.57;;;2.97;;
42904;SDS011;28550;51.228;4.528;2023-07-13T16:00:32;4.88;;;2.80;;
42904;SDS011;28550;51.228;4.528;2023-07-13T16:02:57;6.20;;;3.33;;
42904;SDS011;28550;51.228;4.528;2023-07-13T16:11:04;5.88;;;2.92;;
42904;SDS011;28550;51.228;4.528;2023-07-13T16:14:17;8.70;;;3.42;;
42904;SDS011;28550;51.228;4.528;2023-07-13T16:16:45;3.58;;;3.17;;
42904;SDS011;28550;51.228;4.528;2023-07-13T16:19:19;5.68;;;3.60;;
42904;SDS011;28550;51.228;4.528;2023-07-13T16:21:55;6.70;;;3.90;;
42904;SDS011;28550;51.228;4.528;2023-07-13T16:24:25;5.13;;;3.08;;
42904;SDS011;28550;51.228;4.528;2023-07-13T16:26:52;4.78;;;3.53;;
42904;SDS011;28550;51.228;4.528;2023-07-13T16:29:31;5.88;;;3.80;;
42904;SDS011;28550;51.228;4.528;2023-07-13T16:32:01;6.43;;;3.35;;
42904;SDS011;28550;51.228;4.528;2023-07-13T16:34:43;8.93;;;4.32;;
42904;SDS011;28550;51.228;4.528;2023-07-13T16:37:20;6.68;;;3.92;;
42904;SDS011;28550;51.228;4.528;2023-07-13T16:39:52;7.57;;;3.72;;
42904;SDS011;28550;51.228;4.528;2023-07-13T16:45:32;5.03;;;3.58;;
42904;SDS011;28550;51.228;4.528;2023-07-13T16:48:05;10.95;;;4.22;;
42904;SDS011;28550;51.228;4.528;2023-07-13T16:51:09;5.70;;;3.92;;
42904;SDS011;28550;51.228;4.528;2023-07-13T16:53:34;5.72;;;3.65;;
42904;SDS011;28550;51.228;4.528;2023-07-13T16:56:01;7.28;;;4.28;;
42904;SDS011;28550;51.228;4.528;2023-07-13T16:58:30;7.35;;;3.88;;
42904;SDS011;28550;51.228;4.528;2023-07-13T17:01:24;7.20;;;3.50;;
42904;SDS011;28550;51.228;4.528;2023-07-13T17:03:59;9.30;;;3.30;;
42904;SDS011;28550;51.228;4.528;2023-07-13T17:07:06;7.57;;;3.08;;
42904;SDS011;28550;51.228;4.528;2023-07-13T17:09:48;9.48;;;3.60;;
42904;SDS011;28550;51.228;4.528;2023-07-13T17:12:24;7.50;;;3.30;;
42904;SDS011;28550;51.228;4.528;2023-07-13T17:18:52;6.53;;;3.65;;
42904;SDS011;28550;51.228;4.528;2023-07-13T17:21:23;7.07;;;3.40;;
42904;SDS011;28550;51.228;4.528;2023-07-13T17:23:49;8.60;;;3.20;;
42904;SDS011;28550;51.228;4.528;2023-07-13T17:26:18;8.75;;;3.35;;
42904;SDS011;28550;51.228;4.528;2023-07-13T17:31:42;7.97;;;3.03;;
42904;SDS011;28550;51.228;4.528;2023-07-13T17:34:30;5.63;;;3.08;;
42904;SDS011;28550;51.228;4.528;2023-07-13T17:37:10;6.35;;;3.00;;
42904;SDS011;28550;51.228;4.528;2023-07-13T17:42:43;11.25;;;3.38;;
42904;SDS011;28550;51.228;4.528;2023-07-13T17:45:12;6.80;;;3.17;;
42904;SDS011;28550;51.228;4.528;2023-07-13T17:47:43;9.70;;;3.47;;
42904;SDS011;28550;51.228;4.528;2023-07-13T17:50:13;9.10;;;3.78;;
42904;SDS011;28550;51.228;4.528;2023-07-13T17:52:47;9.45;;;3.88;;
42904;SDS011;28550;51.228;4.528;2023-07-13T17:55:22;7.82;;;3.50;;
42904;SDS011;28550;51.228;4.528;2023-07-13T17:57:52;5.28;;;3.38;;
42904;SDS011;28550;51.228;4.528;2023-07-13T18:00:19;7.70;;;4.32;;
42904;SDS011;28550;51.228;4.528;2023-07-13T18:06:12;7.18;;;3.45;;
42904;SDS011;28550;51.228;4.528;2023-07-13T18:40:34;8.02;;;3.40;;
42904;SDS011;28550;51.228;4.528;2023-07-13T19:10:53;8.27;;;4.20;;
42904;SDS011;28550;51.228;4.528;2023-07-13T19:23:33;5.93;;;3.80;;
42904;SDS011;28550;51.228;4.528;2023-07-13T19:29:18;6.35;;;3.97;;
42904;SDS011;28550;51.228;4.528;2023-07-13T19:36:09;11.25;;;3.50;;
42904;SDS011;28550;51.228;4.528;2023-07-13T19:42:24;5.57;;;3.58;;
42904;SDS011;28550;51.228;4.528;2023-07-13T19:44:58;7.97;;;4.15;;
42904;SDS011;28550;51.228;4.528;2023-07-13T19:47:43;11.80;;;4.18;;
42904;SDS011;28550;51.228;4.528;2023-07-13T19:53:35;10.73;;;3.85;;
42904;SDS011;28550;51.228;4.528;2023-07-13T19:59:08;8.82;;;4.13;;
42904;SDS011;28550;51.228;4.528;2023-07-13T20:02:00;11.50;;;4.50;;
42904;SDS011;28550;51.228;4.528;2023-07-13T20:04:46;8.00;;;4.55;;
42904;SDS011;28550;51.228;4.528;2023-07-13T20:07:21;5.15;;;3.83;;
42904;SDS011;28550;51.228;4.528;2023-07-13T20:18:24;11.23;;;4.90;;
42904;SDS011;28550;51.228;4.528;2023-07-13T20:21:11;9.43;;;4.70;;
42904;SDS011;28550;51.228;4.528;2023-07-13T20:23:46;7.55;;;5.10;;
42904;SDS011;28550;51.228;4.528;2023-07-13T20:29:34;8.57;;;4.63;;
42904;SDS011;28550;51.228;4.528;2023-07-13T20:35:33;4.63;;;4.10;;
42904;SDS011;28550;51.228;4.528;2023-07-13T20:38:08;7.95;;;4.90;;
42904;SDS011;28550;51.228;4.528;2023-07-13T20:41:04;7.70;;;4.93;;
42904;SDS011;28550;51.228;4.528;2023-07-13T20:43:45;10.13;;;5.50;;
42904;SDS011;28550;51.228;4.528;2023-07-13T20:46:15;9.30;;;4.35;;
42904;SDS011;28550;51.228;4.528;2023-07-13T20:48:49;11.32;;;4.53;;